createdAt,value
2018-07-06T00:00:15.108Z,78.01
2018-07-06T00:02:55.140Z,78.75
2018-07-06T00:05:35.129Z,78.54
2018-07-06T00:08:15.180Z,79.04
2018-07-06T00:10:55.219Z,79.05
2018-07-06T00:13:35.266Z,79.18
2018-07-06T00:16:15.387Z,79.07
2018-07-06T00:18:55.470Z,79.58
2018-07-06T00:21:35.679Z,79.42
2018-07-06T00:24:15.681Z,79.29
2018-07-06T00:26:55.557Z,79.15
2018-07-06T00:29:35.628Z,79.73
2018-07-06T00:32:15.411Z,79.83
2018-07-06T00:34:55.529Z,79.99
2018-07-06T00:37:35.891Z,79.28
2018-07-06T00:40:16.046Z,79.05
2018-07-06T00:42:56.012Z,79.49
2018-07-06T00:45:35.866Z,79.10
2018-07-06T00:48:16.190Z,79.24
2018-07-06T00:50:56.210Z,79.03
2018-07-06T00:53:36.709Z,79.34
2018-07-06T00:56:16.675Z,78.83
2018-07-06T00:58:56.546Z,79.54
2018-07-06T01:01:36.469Z,79.71
2018-07-06T01:04:16.787Z,79.08
2018-07-06T01:06:56.872Z,79.46
2018-07-06T01:09:36.728Z,79.76
2018-07-06T01:12:21.888Z,80.08
2018-07-06T01:15:05.839Z,79.84
2018-07-06T01:17:46.032Z,80.16
2018-07-06T01:20:26.341Z,80.55
2018-07-06T01:23:10.351Z,81.09
2018-07-06T01:25:50.233Z,80.91
2018-07-06T01:28:30.297Z,81.60
2018-07-06T01:31:10.504Z,81.88
2018-07-06T01:33:50.484Z,81.65
2018-07-06T01:36:30.906Z,81.96
2018-07-06T01:39:11.151Z,82.51
2018-07-06T01:41:51.254Z,82.12
2018-07-06T01:44:31.333Z,82.09
2018-07-06T01:47:11.319Z,82.33
2018-07-06T01:49:51.036Z,83.01
2018-07-06T01:52:32.054Z,82.67
2018-07-06T01:55:11.922Z,83.02
2018-07-06T01:57:51.861Z,83.69
2018-07-06T02:00:32.058Z,84.36
2018-07-06T02:03:11.938Z,83.73
2018-07-06T02:05:51.820Z,84.59
2018-07-06T02:08:32.329Z,84.93
2018-07-06T02:11:12.576Z,84.86
2018-07-06T02:13:53.090Z,86.00
2018-07-06T02:16:32.938Z,86.73
2018-07-06T02:19:12.818Z,87.07
2018-07-06T02:21:52.542Z,87.48
2018-07-06T02:24:32.684Z,88.14
2018-07-06T02:27:12.845Z,88.97
2018-07-06T02:29:52.730Z,89.71
2018-07-06T02:32:32.627Z,90.05
2018-07-06T02:35:12.819Z,90.15
2018-07-06T02:37:53.067Z,90.47
2018-07-06T02:40:33.882Z,90.34
2018-07-06T02:43:14.238Z,90.22
2018-07-06T02:45:54.499Z,90.66
2018-07-06T02:48:34.426Z,90.75
2018-07-06T02:51:14.326Z,90.42
2018-07-06T02:53:54.653Z,90.99
2018-07-06T02:56:34.716Z,91.33
2018-07-06T02:59:15.403Z,91.35
2018-07-06T03:01:55.690Z,91.19
2018-07-06T03:04:35.896Z,91.20
2018-07-06T03:07:15.652Z,91.13
2018-07-06T03:09:55.789Z,90.63
2018-07-06T03:12:35.824Z,91.31
2018-07-06T03:15:16.046Z,90.97
2018-07-06T03:17:55.950Z,90.85
2018-07-06T03:20:35.793Z,90.96
2018-07-06T03:23:16.276Z,90.84
2018-07-06T03:25:56.531Z,90.90
2018-07-06T03:28:36.397Z,91.70
2018-07-06T03:31:16.341Z,91.25
2018-07-06T03:33:56.688Z,90.99
2018-07-06T03:36:36.648Z,90.72
2018-07-06T03:39:16.795Z,91.24
2018-07-06T03:41:56.519Z,90.69
2018-07-06T03:44:36.454Z,90.60
2018-07-06T03:47:17.116Z,90.91
2018-07-06T03:49:57.177Z,91.12
2018-07-06T03:52:37.264Z,90.87
2018-07-06T03:55:21.615Z,91.17
2018-07-06T03:58:03.296Z,90.58
2018-07-06T04:00:43.182Z,90.97
2018-07-06T04:03:23.069Z,91.37
2018-07-06T04:06:03.344Z,91.09
2018-07-06T04:08:43.402Z,91.32
2018-07-06T04:11:23.140Z,90.90
2018-07-06T04:14:02.947Z,91.37
2018-07-06T04:16:43.271Z,91.38
2018-07-06T04:19:23.449Z,90.93
2018-07-06T04:22:03.375Z,90.84
2018-07-06T04:24:43.295Z,90.94
2018-07-06T04:27:23.141Z,90.52
2018-07-06T04:30:03.452Z,90.84
2018-07-06T04:32:43.344Z,91.00
2018-07-06T04:35:23.862Z,90.29
2018-07-06T04:38:03.554Z,90.66
2018-07-06T04:40:43.671Z,90.72
2018-07-06T04:43:23.419Z,90.64
2018-07-06T04:46:03.429Z,90.82
2018-07-06T04:48:43.469Z,90.45
2018-07-06T04:51:23.651Z,90.22
2018-07-06T04:54:03.601Z,89.81
2018-07-06T04:56:43.535Z,89.85
2018-07-06T04:59:23.789Z,89.64
2018-07-06T05:02:03.532Z,89.84
2018-07-06T05:04:43.402Z,89.64
2018-07-06T05:07:23.676Z,89.13
2018-07-06T05:10:03.787Z,89.72
2018-07-06T05:12:44.001Z,89.37
2018-07-06T05:15:24.196Z,89.31
2018-07-06T05:18:04.105Z,89.30
2018-07-06T05:20:43.887Z,88.70
2018-07-06T05:23:23.600Z,88.81
2018-07-06T05:26:03.407Z,88.53
2018-07-06T05:28:43.740Z,88.46
2018-07-06T05:31:23.698Z,89.34
2018-07-06T05:34:03.773Z,88.79
2018-07-06T05:36:43.583Z,88.90
2018-07-06T05:39:23.941Z,88.34
2018-07-06T05:42:03.761Z,88.50
2018-07-06T05:44:43.763Z,88.25
2018-07-06T05:47:23.517Z,88.18
2018-07-06T05:50:03.621Z,88.39
2018-07-06T05:52:43.709Z,87.52
2018-07-06T05:55:23.575Z,86.92
2018-07-06T05:58:04.253Z,86.62
2018-07-06T06:00:44.365Z,86.75
2018-07-06T06:03:24.228Z,86.85
2018-07-06T06:06:03.950Z,86.25
2018-07-06T06:08:32.231Z,85.48
2018-07-06T06:11:01.425Z,85.09
2018-07-06T06:13:30.183Z,85.60
2018-07-06T06:15:59.035Z,84.71
2018-07-06T06:18:27.852Z,83.85
2018-07-06T06:20:56.947Z,83.16
2018-07-06T06:23:26.043Z,83.05
2018-07-06T06:25:55.325Z,82.64
2018-07-06T06:28:24.389Z,82.73
2018-07-06T06:30:53.388Z,82.74
2018-07-06T06:33:22.324Z,82.64
2018-07-06T06:35:51.250Z,82.59
2018-07-06T06:38:20.400Z,82.50
2018-07-06T06:40:49.445Z,83.02
2018-07-06T06:43:19.124Z,82.38
2018-07-06T06:45:48.267Z,80.92
2018-07-06T06:48:17.002Z,81.30
2018-07-06T06:50:46.749Z,80.90
2018-07-06T06:53:15.544Z,79.94
2018-07-06T06:55:45.366Z,78.92
2018-07-06T06:58:14.200Z,79.00
2018-07-06T07:00:44.539Z,79.11
2018-07-06T07:03:13.838Z,79.08
2018-07-06T07:05:42.894Z,78.95
2018-07-06T07:08:12.400Z,77.72
2018-07-06T07:10:41.181Z,77.50
2018-07-06T07:13:10.583Z,76.92
2018-07-06T07:15:39.787Z,75.62
2018-07-06T07:18:08.908Z,73.23
2018-07-06T07:20:37.670Z,72.34
2018-07-06T07:23:07.333Z,70.92
2018-07-06T07:25:36.084Z,71.03
2018-07-06T07:28:05.363Z,71.12
2018-07-06T07:30:34.125Z,70.93
2018-07-06T07:33:02.858Z,70.67
2018-07-06T07:35:32.153Z,71.39
2018-07-06T07:38:01.579Z,70.45
2018-07-06T07:40:30.987Z,69.87
2018-07-06T07:43:00.142Z,67.91
2018-07-06T07:45:29.031Z,66.80
2018-07-06T07:47:58.971Z,65.48
2018-07-06T07:50:28.233Z,64.67
2018-07-06T07:53:08.254Z,63.99
2018-07-06T07:55:37.176Z,63.05
2018-07-06T07:58:06.370Z,63.45
2018-07-06T08:00:35.851Z,60.35
2018-07-06T08:03:04.653Z,60.16
2018-07-06T08:05:33.725Z,60.88
2018-07-06T08:08:02.550Z,58.46
2018-07-06T08:10:31.579Z,58.80
2018-07-06T08:13:00.735Z,57.88
2018-07-06T08:15:30.178Z,57.99
2018-07-06T08:17:59.030Z,55.88
2018-07-06T08:20:28.230Z,57.61
2018-07-06T08:23:00.087Z,58.19
2018-07-06T08:25:29.202Z,58.47
2018-07-06T08:27:59.273Z,58.40
2018-07-06T08:30:28.055Z,58.95
2018-07-06T08:32:57.372Z,58.67
2018-07-06T08:35:37.352Z,56.43
2018-07-06T08:38:06.970Z,59.65
2018-07-06T08:40:36.251Z,57.47
2018-07-06T08:43:06.090Z,58.93
2018-07-06T08:45:35.972Z,58.51
2018-07-06T08:48:05.074Z,57.25
2018-07-06T08:50:34.232Z,57.87
2018-07-06T08:53:03.102Z,56.72
2018-07-06T08:55:32.034Z,56.22
2018-07-06T08:58:00.830Z,55.98
2018-07-06T09:00:29.915Z,56.37
2018-07-06T09:02:59.102Z,56.69
2018-07-06T09:05:27.975Z,56.26
2018-07-06T09:07:57.779Z,55.63
2018-07-06T09:10:26.618Z,55.44
2018-07-06T09:12:55.502Z,55.32
2018-07-06T09:15:24.916Z,53.51
2018-07-06T09:17:53.885Z,51.70
2018-07-06T09:20:23.027Z,52.17
2018-07-06T09:22:52.358Z,53.10
2018-07-06T09:25:21.590Z,52.68
2018-07-06T09:27:50.712Z,51.02
2018-07-06T09:30:19.440Z,51.73
2018-07-06T09:32:49.125Z,50.01
2018-07-06T09:35:18.567Z,49.96
2018-07-06T09:37:47.471Z,49.54
2018-07-06T09:40:16.267Z,50.37
2018-07-06T09:42:45.613Z,47.72
2018-07-06T09:45:14.551Z,48.15
2018-07-06T09:47:43.960Z,49.29
2018-07-06T09:50:13.190Z,48.96
2018-07-06T09:52:42.541Z,48.63
2018-07-06T09:55:11.648Z,48.41
2018-07-06T09:57:41.156Z,48.96
2018-07-06T10:00:13.466Z,47.87
2018-07-06T10:02:42.480Z,48.65
2018-07-06T10:05:11.813Z,47.13
2018-07-06T10:07:40.571Z,47.81
2018-07-06T10:10:09.777Z,47.09
2018-07-06T10:12:38.834Z,45.00
2018-07-06T10:15:07.837Z,44.78
2018-07-06T10:17:36.628Z,44.17
2018-07-06T10:20:05.699Z,45.52
2018-07-06T10:22:35.389Z,44.28
2018-07-06T10:25:04.112Z,45.41
2018-07-06T10:27:44.144Z,43.44
2018-07-06T10:30:30.346Z,43.67
2018-07-06T10:32:59.283Z,42.81
2018-07-06T10:35:28.278Z,43.90
2018-07-06T10:37:57.015Z,43.69
2018-07-06T10:40:26.341Z,41.39
2018-07-06T10:42:55.380Z,42.68
2018-07-06T10:45:24.653Z,41.55
2018-07-06T10:47:53.424Z,42.42
2018-07-06T10:50:22.770Z,39.64
2018-07-06T10:52:51.534Z,39.48
2018-07-06T10:55:20.526Z,40.72
2018-07-06T10:57:49.539Z,40.93
2018-07-06T11:00:18.660Z,40.62
2018-07-06T11:02:47.510Z,39.46
2018-07-06T11:05:17.012Z,39.39
2018-07-06T11:07:46.403Z,40.75
2018-07-06T11:10:15.719Z,39.08
2018-07-06T11:12:44.823Z,38.39
2018-07-06T11:15:14.124Z,39.18
2018-07-06T11:17:42.974Z,37.87
2018-07-06T11:20:12.430Z,37.70
2018-07-06T11:22:41.519Z,36.06
2018-07-06T11:25:10.515Z,32.52
2018-07-06T11:27:39.835Z,33.66
2018-07-06T11:30:08.870Z,32.35
2018-07-06T11:32:37.938Z,33.69
2018-07-06T11:35:06.923Z,34.57
2018-07-06T11:37:37.163Z,34.95
2018-07-06T11:40:06.549Z,34.37
2018-07-06T11:42:35.585Z,35.53
2018-07-06T11:45:04.743Z,33.85
2018-07-06T11:47:33.736Z,35.55
2018-07-06T11:50:02.775Z,34.11
2018-07-06T11:52:31.523Z,33.29
2018-07-06T11:55:00.366Z,32.52
2018-07-06T11:57:29.484Z,29.88
2018-07-06T11:59:58.655Z,30.61
2018-07-06T12:02:27.597Z,31.62
2018-07-06T12:04:56.770Z,29.03
2018-07-06T12:07:25.640Z,28.47
2018-07-06T12:09:54.794Z,27.13
2018-07-06T12:12:23.958Z,27.30
2018-07-06T12:14:53.223Z,26.57
2018-07-06T12:17:22.201Z,27.56
2018-07-06T12:19:51.472Z,27.42
2018-07-06T12:22:20.766Z,25.55
2018-07-06T12:24:50.064Z,23.71
2018-07-06T12:27:18.909Z,24.69
2018-07-06T12:29:48.352Z,25.29
2018-07-06T12:32:17.201Z,25.32
2018-07-06T12:34:46.299Z,25.71
2018-07-06T12:37:16.005Z,24.90
2018-07-06T12:39:45.143Z,21.84
2018-07-06T12:42:14.354Z,22.82
2018-07-06T12:44:43.346Z,22.90
2018-07-06T12:47:12.613Z,22.04
2018-07-06T12:49:41.809Z,19.92
2018-07-06T12:52:11.036Z,19.48
2018-07-06T12:54:40.728Z,20.03
2018-07-06T12:57:09.990Z,20.41
2018-07-06T12:59:39.023Z,21.22
2018-07-06T13:02:07.946Z,21.16
2018-07-06T13:04:37.134Z,19.40
2018-07-06T13:07:07.088Z,20.52
2018-07-06T13:09:36.072Z,21.18
2018-07-06T13:12:05.063Z,21.43
2018-07-06T13:14:34.696Z,20.54
2018-07-06T13:17:03.856Z,20.56
2018-07-06T13:19:32.777Z,19.96
2018-07-06T13:22:02.037Z,19.34
2018-07-06T13:24:31.265Z,19.58
2018-07-06T13:27:00.227Z,20.90
2018-07-06T13:29:29.261Z,21.39
2018-07-06T13:31:58.186Z,21.19
2018-07-06T13:34:27.245Z,22.06
2018-07-06T13:36:56.234Z,21.71
2018-07-06T13:39:25.658Z,20.31
2018-07-06T13:41:54.657Z,20.38
2018-07-06T13:44:24.100Z,20.47
2018-07-06T13:46:53.656Z,22.78
2018-07-06T13:49:23.108Z,21.84
2018-07-06T13:51:52.365Z,21.78
2018-07-06T13:54:21.239Z,21.35
2018-07-06T13:56:50.173Z,21.11
2018-07-06T13:59:19.282Z,21.52
2018-07-06T14:01:48.474Z,21.29
2018-07-06T14:04:17.291Z,21.99
2018-07-06T14:06:46.241Z,20.95
2018-07-06T14:09:15.134Z,20.03
2018-07-06T14:11:44.717Z,20.69
2018-07-06T14:14:14.308Z,20.87
2018-07-06T14:16:43.317Z,21.03
2018-07-06T14:19:12.608Z,20.60
2018-07-06T14:21:41.846Z,20.17
2018-07-06T14:24:11.274Z,21.15
2018-07-06T14:26:40.844Z,21.67
2018-07-06T14:29:10.114Z,21.37
2018-07-06T14:31:39.280Z,21.49
2018-07-06T14:34:08.252Z,21.47
2018-07-06T14:36:37.264Z,22.15
2018-07-06T14:39:07.275Z,22.12
2018-07-06T14:41:36.936Z,23.34
2018-07-06T14:44:06.262Z,22.97
2018-07-06T14:46:35.471Z,22.64
2018-07-06T14:49:05.209Z,23.40
2018-07-06T14:51:34.129Z,22.41
2018-07-06T14:54:03.351Z,22.96
2018-07-06T14:56:32.647Z,23.97
2018-07-06T14:59:01.852Z,23.17
2018-07-06T15:01:31.359Z,22.76
2018-07-06T15:04:00.789Z,24.12
2018-07-06T15:06:29.741Z,23.78
2018-07-06T15:08:59.128Z,23.93
2018-07-06T15:11:28.089Z,23.46
2018-07-06T15:13:56.984Z,23.97
2018-07-06T15:16:26.008Z,24.52
2018-07-06T15:18:54.781Z,25.02
2018-07-06T15:21:23.715Z,23.62
2018-07-06T15:23:52.837Z,23.94
2018-07-06T15:26:22.015Z,23.60
2018-07-06T15:28:51.752Z,23.86
2018-07-06T15:31:20.706Z,23.30
2018-07-06T15:33:49.595Z,24.74
2018-07-06T15:36:18.831Z,25.26
2018-07-06T15:38:48.214Z,24.76
2018-07-06T15:41:17.135Z,22.93
2018-07-06T15:43:46.052Z,21.98
2018-07-06T15:46:14.872Z,22.83
2018-07-06T15:48:44.083Z,23.78
2018-07-06T15:51:12.891Z,24.83
2018-07-06T15:53:42.250Z,24.42
2018-07-06T15:56:11.224Z,24.73
2018-07-06T15:58:40.141Z,24.64
2018-07-06T16:01:09.752Z,25.45
2018-07-06T16:03:39.177Z,25.05
2018-07-06T16:06:08.853Z,24.45
2018-07-06T16:08:38.203Z,25.52
2018-07-06T16:11:07.630Z,24.87
2018-07-06T16:13:36.845Z,22.96
2018-07-06T16:16:07.027Z,24.80
2018-07-06T16:18:35.898Z,27.00
2018-07-06T16:21:04.818Z,27.88
2018-07-06T16:23:33.792Z,28.21
2018-07-06T16:26:02.683Z,28.97
2018-07-06T16:28:31.914Z,29.13
2018-07-06T16:31:00.757Z,28.65
2018-07-06T16:33:29.749Z,27.74
2018-07-06T16:35:58.948Z,28.53
2018-07-06T16:38:28.408Z,28.85
2018-07-06T16:40:57.417Z,28.30
2018-07-06T16:43:26.512Z,28.11
2018-07-06T16:45:56.310Z,28.41
2018-07-06T16:48:25.838Z,29.74
2018-07-06T16:50:54.683Z,30.15
2018-07-06T16:53:23.944Z,30.13
2018-07-06T16:55:53.171Z,30.25
2018-07-06T16:58:22.882Z,30.33
2018-07-06T17:00:51.794Z,29.73
2018-07-06T17:03:20.892Z,30.42
2018-07-06T17:05:50.110Z,29.85
2018-07-06T17:08:18.989Z,29.38
2018-07-06T17:10:47.929Z,29.82
2018-07-06T17:13:16.822Z,28.57
2018-07-06T17:15:46.186Z,28.20
2018-07-06T17:18:15.116Z,28.34
2018-07-06T17:20:44.568Z,29.26
2018-07-06T17:23:13.649Z,29.79
2018-07-06T17:25:42.646Z,29.22
2018-07-06T17:28:11.758Z,28.71
2018-07-06T17:30:41.285Z,28.40
2018-07-06T17:33:10.633Z,28.20
2018-07-06T17:35:39.827Z,29.80
2018-07-06T17:38:09.024Z,30.08
2018-07-06T17:40:37.967Z,30.21
2018-07-06T17:43:07.108Z,30.03
2018-07-06T17:45:36.500Z,29.66
2018-07-06T17:48:05.373Z,28.62
2018-07-06T17:50:34.405Z,27.89
2018-07-06T17:53:04.080Z,28.09
2018-07-06T17:55:33.481Z,29.05
2018-07-06T17:58:02.295Z,29.65
2018-07-06T18:00:31.042Z,29.53
2018-07-06T18:03:00.525Z,30.03
2018-07-06T18:05:29.608Z,31.08
2018-07-06T18:07:58.439Z,31.39
2018-07-06T18:10:27.631Z,32.00
2018-07-06T18:12:56.821Z,32.61
2018-07-06T18:15:25.690Z,33.14
2018-07-06T18:17:54.533Z,32.97
2018-07-06T18:20:23.366Z,33.89
2018-07-06T18:22:52.314Z,34.10
2018-07-06T18:25:21.307Z,34.62
2018-07-06T18:27:50.056Z,34.76
2018-07-06T18:30:18.837Z,33.69
2018-07-06T18:32:47.764Z,34.00
2018-07-06T18:35:16.600Z,32.60
2018-07-06T18:37:46.466Z,30.93
2018-07-06T18:40:15.886Z,31.34
2018-07-06T18:42:45.567Z,31.73
2018-07-06T18:45:15.006Z,31.68
2018-07-06T18:47:43.787Z,30.11
2018-07-06T18:50:13.222Z,29.93
2018-07-06T18:52:43.473Z,30.21
2018-07-06T18:55:13.020Z,30.31
2018-07-06T18:57:42.602Z,31.34
2018-07-06T19:00:12.855Z,32.14
2018-07-06T19:02:43.423Z,33.20
2018-07-06T19:05:13.122Z,33.74
2018-07-06T19:07:42.340Z,33.95
2018-07-06T19:10:11.509Z,35.31
2018-07-06T19:12:41.010Z,34.94
2018-07-06T19:15:10.316Z,35.08
2018-07-06T19:17:39.760Z,36.49
2018-07-06T19:20:08.990Z,37.26
2018-07-06T19:22:38.049Z,37.31
2018-07-06T19:25:07.418Z,38.89
2018-07-06T19:27:37.000Z,39.63
2018-07-06T19:30:06.573Z,39.80
2018-07-06T19:32:35.742Z,40.86
2018-07-06T19:35:04.985Z,41.44
2018-07-06T19:37:34.649Z,42.06
2018-07-06T19:40:04.374Z,42.58
2018-07-06T19:42:33.858Z,42.99
2018-07-06T19:45:03.129Z,43.82
2018-07-06T19:47:32.204Z,44.79
2018-07-06T19:50:01.010Z,46.57
2018-07-06T19:52:30.485Z,46.96
2018-07-06T19:54:59.597Z,47.12
2018-07-06T19:57:29.430Z,48.74
2018-07-06T19:59:58.703Z,49.35
2018-07-06T20:02:27.807Z,49.75
2018-07-06T20:04:57.171Z,50.54
2018-07-06T20:07:25.951Z,51.27
2018-07-06T20:09:54.706Z,51.15
2018-07-06T20:12:24.177Z,51.82
2018-07-06T20:14:52.922Z,52.02
2018-07-06T20:17:22.031Z,52.58
2018-07-06T20:19:51.704Z,53.26
2018-07-06T20:22:21.029Z,52.58
2018-07-06T20:24:51.224Z,53.46
2018-07-06T20:27:20.597Z,54.05
2018-07-06T20:29:51.257Z,54.86
2018-07-06T20:32:20.135Z,54.24
2018-07-06T20:34:49.416Z,55.28
2018-07-06T20:37:18.576Z,55.32
2018-07-06T20:39:47.735Z,55.38
2018-07-06T20:42:17.312Z,55.63
2018-07-06T20:44:46.758Z,55.53
2018-07-06T20:47:15.893Z,55.56
2018-07-06T20:49:44.861Z,56.71
2018-07-06T20:52:13.919Z,56.73
2018-07-06T20:54:43.700Z,57.45
2018-07-06T20:57:12.891Z,57.49
2018-07-06T20:59:42.129Z,58.26
2018-07-06T21:02:11.083Z,58.22
2018-07-06T21:04:40.406Z,58.36
2018-07-06T21:07:10.220Z,58.30
2018-07-06T21:09:39.114Z,58.97
2018-07-06T21:12:08.500Z,58.73
2018-07-06T21:14:38.242Z,59.30
2018-07-06T21:17:07.240Z,59.60
2018-07-06T21:19:36.617Z,59.91
2018-07-06T21:22:05.695Z,60.08
2018-07-06T21:24:34.546Z,60.77
2018-07-06T21:27:04.200Z,60.02
2018-07-06T21:29:33.422Z,61.06
2018-07-06T21:32:02.255Z,60.37
2018-07-06T21:34:31.401Z,60.41
2018-07-06T21:37:01.682Z,60.91
2018-07-06T21:39:31.758Z,61.12
2018-07-06T21:42:01.887Z,61.08
2018-07-06T21:44:31.694Z,61.17
2018-07-06T21:47:01.518Z,61.42
2018-07-06T21:49:31.172Z,61.37
2018-07-06T21:52:01.018Z,61.83
2018-07-06T21:54:30.433Z,61.58
2018-07-06T21:56:59.271Z,61.85
2018-07-06T21:59:28.773Z,61.94
2018-07-06T22:01:57.889Z,62.71
2018-07-06T22:04:26.706Z,63.04
2018-07-06T22:06:55.638Z,63.37
2018-07-06T22:09:24.730Z,62.85
2018-07-06T22:11:54.164Z,63.53
2018-07-06T22:14:23.531Z,63.95
2018-07-06T22:16:52.282Z,64.00
2018-07-06T22:19:21.040Z,64.02
2018-07-06T22:21:50.175Z,64.39
2018-07-06T22:24:19.356Z,64.59
2018-07-06T22:26:48.752Z,64.84
2018-07-06T22:29:17.542Z,64.66
2018-07-06T22:31:46.313Z,64.59
2018-07-06T22:34:15.071Z,64.57
2018-07-06T22:36:43.814Z,64.69
2018-07-06T22:39:12.791Z,64.89
2018-07-06T22:41:41.881Z,65.22
2018-07-06T22:44:11.304Z,65.80
2018-07-06T22:46:40.183Z,65.83
2018-07-06T22:49:08.944Z,65.91
2018-07-06T22:51:37.945Z,66.13
2018-07-06T22:54:07.007Z,66.24
2018-07-06T22:56:36.167Z,66.69
2018-07-06T22:59:05.584Z,65.98
2018-07-06T23:01:34.694Z,66.35
2018-07-06T23:04:03.434Z,66.32
2018-07-06T23:06:32.566Z,66.85
2018-07-06T23:09:01.423Z,66.63
2018-07-06T23:11:30.833Z,67.24
2018-07-06T23:14:00.270Z,67.04
2018-07-06T23:16:29.107Z,67.32
2018-07-06T23:18:57.887Z,67.59
2018-07-06T23:21:26.675Z,68.15
2018-07-06T23:23:55.782Z,68.13
2018-07-06T23:26:24.665Z,68.33
2018-07-06T23:28:53.703Z,68.71
2018-07-06T23:31:23.087Z,69.08
2018-07-06T23:33:51.972Z,69.31
2018-07-06T23:36:21.227Z,69.48
2018-07-06T23:38:50.333Z,70.01
2018-07-06T23:41:19.470Z,70.27
2018-07-06T23:43:48.223Z,70.20
2018-07-06T23:46:17.309Z,70.51
2018-07-06T23:48:46.082Z,70.40
2018-07-06T23:51:14.914Z,70.79
2018-07-06T23:53:44.645Z,70.41
2018-07-06T23:56:14.023Z,70.97
2018-07-06T23:58:43.146Z,70.69
